sensor_id;sensor_type;location;lat;lon;timestamp;pressure;altitude;pressure_sealevel;temperature;humidity
43450;BME280;29041;42.266;23.110;2023-07-30T00:01:23;95581.63;;;20.87;66.51
43450;BME280;29041;42.266;23.110;2023-07-30T00:04:15;95571.53;;;20.76;66.96
43450;BME280;29041;42.266;23.110;2023-07-30T00:07:04;95588.66;;;20.84;67.36
43450;BME280;29041;42.266;23.110;2023-07-30T00:09:52;95588.66;;;20.77;67.83
43450;BME280;29041;42.266;23.110;2023-07-30T00:12:39;95583.97;;;20.88;67.12
43450;BME280;29041;42.266;23.110;2023-07-30T00:15:26;95586.69;;;20.63;68.45
43450;BME280;29041;42.266;23.110;2023-07-30T00:18:14;95588.66;;;20.59;68.56
43450;BME280;29041;42.266;23.110;2023-07-30T00:21:01;95595.69;;;20.53;68.86
43450;BME280;29041;42.266;23.110;2023-07-30T00:24:05;95589.84;;;20.43;69.77
43450;BME280;29041;42.266;23.110;2023-07-30T00:26:52;95597.25;;;20.32;70.09
43450;BME280;29041;42.266;23.110;2023-07-30T00:29:39;95603.44;;;20.83;67.81
43450;BME280;29041;42.266;23.110;2023-07-30T00:32:26;95595.69;;;20.45;69.20
43450;BME280;29041;42.266;23.110;2023-07-30T00:35:13;95595.28;;;20.33;69.22
43450;BME280;29041;42.266;23.110;2023-07-30T00:38:00;95586.34;;;20.18;69.98
43450;BME280;29041;42.266;23.110;2023-07-30T00:40:50;95591.41;;;20.05;70.67
43450;BME280;29041;42.266;23.110;2023-07-30T00:43:37;95589.44;;;20.12;70.44
43450;BME280;29041;42.266;23.110;2023-07-30T00:46:24;95578.16;;;20.14;69.99
43450;BME280;29041;42.266;23.110;2023-07-30T00:49:11;95592.97;;;20.13;70.29
43450;BME280;29041;42.266;23.110;2023-07-30T00:51:58;95587.13;;;20.18;70.08
43450;BME280;29041;42.266;23.110;2023-07-30T00:54:52;95589.03;;;20.03;70.64
43450;BME280;29041;42.266;23.110;2023-07-30T00:57:41;95580.09;;;19.95;71.30
43450;BME280;29041;42.266;23.110;2023-07-30T01:00:29;95584.78;;;20.45;69.51
43450;BME280;29041;42.266;23.110;2023-07-30T01:03:17;95587.88;;;20.26;69.84
43450;BME280;29041;42.266;23.110;2023-07-30T01:06:04;95585.94;;;19.90;71.48
43450;BME280;29041;42.266;23.110;2023-07-30T01:08:52;95586.63;;;19.73;72.16
43450;BME280;29041;42.266;23.110;2023-07-30T01:11:40;95590.53;;;19.75;71.96
43450;BME280;29041;42.266;23.110;2023-07-30T01:14:30;95594.00;;;19.61;72.90
43450;BME280;29041;42.266;23.110;2023-07-30T01:17:18;95597.09;;;19.60;72.86
43450;BME280;29041;42.266;23.110;2023-07-30T01:20:06;95585.41;;;19.52;73.35
43450;BME280;29041;42.266;23.110;2023-07-30T01:22:58;95578.34;;;19.33;73.84
43450;BME280;29041;42.266;23.110;2023-07-30T01:25:48;95577.56;;;19.32;73.81
43450;BME280;29041;42.266;23.110;2023-07-30T01:28:39;95581.22;;;19.84;71.79
43450;BME280;29041;42.266;23.110;2023-07-30T01:31:30;95574.94;;;19.54;72.40
43450;BME280;29041;42.266;23.110;2023-07-30T01:34:20;95591.59;;;19.38;74.19
43450;BME280;29041;42.266;23.110;2023-07-30T01:37:10;95586.47;;;19.18;74.59
43450;BME280;29041;42.266;23.110;2023-07-30T01:40:00;95607.78;;;19.09;75.80
43450;BME280;29041;42.266;23.110;2023-07-30T01:42:48;95601.22;;;19.14;75.25
43450;BME280;29041;42.266;23.110;2023-07-30T01:45:35;95611.53;;;18.90;76.40
43450;BME280;29041;42.266;23.110;2023-07-30T01:48:23;95595.50;;;18.70;77.35
43450;BME280;29041;42.266;23.110;2023-07-30T01:51:10;95609.16;;;18.78;76.72
43450;BME280;29041;42.266;23.110;2023-07-30T01:53:57;95612.13;;;18.62;77.58
43450;BME280;29041;42.266;23.110;2023-07-30T01:56:46;95603.25;;;18.68;77.13
43450;BME280;29041;42.266;23.110;2023-07-30T01:59:33;95612.91;;;18.59;78.07
43450;BME280;29041;42.266;23.110;2023-07-30T02:02:20;95610.88;;;18.48;78.79
43450;BME280;29041;42.266;23.110;2023-07-30T02:05:07;95620.53;;;18.42;79.03
43450;BME280;29041;42.266;23.110;2023-07-30T02:07:54;95624.00;;;18.35;80.17
43450;BME280;29041;42.266;23.110;2023-07-30T02:10:41;95621.41;;;18.53;79.14
43450;BME280;29041;42.266;23.110;2023-07-30T02:13:30;95613.66;;;18.59;78.91
43450;BME280;29041;42.266;23.110;2023-07-30T02:16:17;95613.59;;;18.48;79.13
43450;BME280;29041;42.266;23.110;2023-07-30T02:19:04;95613.56;;;18.45;79.44
43450;BME280;29041;42.266;23.110;2023-07-30T02:21:52;95612.06;;;18.51;79.27
43450;BME280;29041;42.266;23.110;2023-07-30T02:24:39;95619.09;;;18.59;78.54
43450;BME280;29041;42.266;23.110;2023-07-30T02:27:26;95617.22;;;18.63;78.89
43450;BME280;29041;42.266;23.110;2023-07-30T02:30:14;95616.47;;;18.74;78.06
43450;BME280;29041;42.266;23.110;2023-07-30T02:33:01;95623.31;;;18.49;79.17
43450;BME280;29041;42.266;23.110;2023-07-30T02:35:48;95620.63;;;18.53;79.08
43450;BME280;29041;42.266;23.110;2023-07-30T02:38:35;95619.78;;;18.45;79.70
43450;BME280;29041;42.266;23.110;2023-07-30T02:41:23;95623.25;;;18.42;79.81
43450;BME280;29041;42.266;23.110;2023-07-30T02:44:10;95621.31;;;18.39;79.90
43450;BME280;29041;42.266;23.110;2023-07-30T02:46:58;95614.78;;;18.54;79.02
43450;BME280;29041;42.266;23.110;2023-07-30T02:49:45;95630.66;;;18.45;79.85
43450;BME280;29041;42.266;23.110;2023-07-30T02:52:32;95631.34;;;18.35;79.94
43450;BME280;29041;42.266;23.110;2023-07-30T02:55:19;95641.19;;;18.05;81.46
43450;BME280;29041;42.266;23.110;2023-07-30T02:58:06;95634.38;;;17.88;81.71
43450;BME280;29041;42.266;23.110;2023-07-30T03:00:53;95634.94;;;17.67;82.93
43450;BME280;29041;42.266;23.110;2023-07-30T03:03:42;95624.31;;;17.55;83.45
43450;BME280;29041;42.266;23.110;2023-07-30T03:06:29;95628.56;;;17.52;83.67
43450;BME280;29041;42.266;23.110;2023-07-30T03:09:16;95630.78;;;17.43;83.67
43450;BME280;29041;42.266;23.110;2023-07-30T03:12:04;95634.97;;;17.37;84.16
43450;BME280;29041;42.266;23.110;2023-07-30T03:14:51;95634.56;;;17.35;84.50
43450;BME280;29041;42.266;23.110;2023-07-30T03:17:38;95635.97;;;17.25;84.51
43450;BME280;29041;42.266;23.110;2023-07-30T03:20:27;95640.53;;;17.48;84.31
43450;BME280;29041;42.266;23.110;2023-07-30T03:23:14;95646.78;;;17.21;84.68
43450;BME280;29041;42.266;23.110;2023-07-30T03:26:01;95646.16;;;17.32;84.09
43450;BME280;29041;42.266;23.110;2023-07-30T03:28:48;95644.44;;;17.20;84.86
43450;BME280;29041;42.266;23.110;2023-07-30T03:31:35;95647.34;;;17.34;84.00
43450;BME280;29041;42.266;23.110;2023-07-30T03:34:22;95637.06;;;17.20;84.40
43450;BME280;29041;42.266;23.110;2023-07-30T03:37:11;95644.34;;;17.12;84.94
43450;BME280;29041;42.266;23.110;2023-07-30T03:39:58;95646.25;;;17.39;84.72
43450;BME280;29041;42.266;23.110;2023-07-30T03:42:45;95639.03;;;17.20;84.56
43450;BME280;29041;42.266;23.110;2023-07-30T03:45:32;95641.16;;;17.07;85.20
43450;BME280;29041;42.266;23.110;2023-07-30T03:48:19;95649.25;;;17.03;84.91
43450;BME280;29041;42.266;23.110;2023-07-30T03:51:07;95646.59;;;17.07;84.89
43450;BME280;29041;42.266;23.110;2023-07-30T03:53:55;95656.44;;;17.19;84.87
43450;BME280;29041;42.266;23.110;2023-07-30T03:56:42;95650.78;;;17.01;85.71
43450;BME280;29041;42.266;23.110;2023-07-30T03:59:30;95655.16;;;17.09;85.57
43450;BME280;29041;42.266;23.110;2023-07-30T04:02:17;95661.41;;;17.13;85.74
43450;BME280;29041;42.266;23.110;2023-07-30T04:05:04;95671.72;;;17.31;84.70
43450;BME280;29041;42.266;23.110;2023-07-30T04:07:51;95663.50;;;17.57;83.02
43450;BME280;29041;42.266;23.110;2023-07-30T04:10:40;95658.47;;;17.56;83.52
43450;BME280;29041;42.266;23.110;2023-07-30T04:13:27;95670.34;;;17.78;82.72
43450;BME280;29041;42.266;23.110;2023-07-30T04:16:14;95675.34;;;17.72;82.43
43450;BME280;29041;42.266;23.110;2023-07-30T04:19:01;95671.94;;;18.62;79.12
43450;BME280;29041;42.266;23.110;2023-07-30T04:21:48;95661.59;;;18.82;76.68
43450;BME280;29041;42.266;23.110;2023-07-30T04:24:35;95659.19;;;18.24;79.41
43450;BME280;29041;42.266;23.110;2023-07-30T04:27:24;95680.16;;;18.24;79.42
43450;BME280;29041;42.266;23.110;2023-07-30T04:30:11;95668.22;;;18.32;79.17
43450;BME280;29041;42.266;23.110;2023-07-30T04:32:59;95677.03;;;18.63;78.57
43450;BME280;29041;42.266;23.110;2023-07-30T04:35:46;95659.28;;;18.80;77.39
43450;BME280;29041;42.266;23.110;2023-07-30T04:38:33;95671.31;;;18.79;77.39
43450;BME280;29041;42.266;23.110;2023-07-30T04:41:22;95666.84;;;18.57;78.64
43450;BME280;29041;42.266;23.110;2023-07-30T04:44:10;95677.94;;;18.85;77.76
43450;BME280;29041;42.266;23.110;2023-07-30T04:46:58;95670.19;;;18.87;77.31
43450;BME280;29041;42.266;23.110;2023-07-30T04:49:45;95679.66;;;18.52;78.92
43450;BME280;29041;42.266;23.110;2023-07-30T04:52:32;95677.97;;;18.89;77.37
43450;BME280;29041;42.266;23.110;2023-07-30T04:55:19;95671.19;;;19.17;75.76
43450;BME280;29041;42.266;23.110;2023-07-30T04:58:06;95682.47;;;19.19;76.47
43450;BME280;29041;42.266;23.110;2023-07-30T05:00:55;95674.03;;;19.35;75.75
43450;BME280;29041;42.266;23.110;2023-07-30T05:03:42;95679.50;;;19.42;75.35
43450;BME280;29041;42.266;23.110;2023-07-30T05:06:39;95679.75;;;20.00;72.58
43450;BME280;29041;42.266;23.110;2023-07-30T05:09:26;95678.38;;;19.54;74.40
43450;BME280;29041;42.266;23.110;2023-07-30T05:12:13;95669.19;;;19.84;73.26
43450;BME280;29041;42.266;23.110;2023-07-30T05:15:00;95663.38;;;19.89;73.70
43450;BME280;29041;42.266;23.110;2023-07-30T05:17:49;95660.28;;;20.09;73.43
43450;BME280;29041;42.266;23.110;2023-07-30T05:20:36;95632.25;;;19.94;73.14
43450;BME280;29041;42.266;23.110;2023-07-30T05:23:23;95652.94;;;20.27;72.00
43450;BME280;29041;42.266;23.110;2023-07-30T05:26:10;95660.38;;;20.81;71.05
43450;BME280;29041;42.266;23.110;2023-07-30T05:28:57;95652.94;;;20.60;70.08
43450;BME280;29041;42.266;23.110;2023-07-30T05:31:44;95672.44;;;20.62;70.76
43450;BME280;29041;42.266;23.110;2023-07-30T05:34:33;95664.59;;;21.18;68.78
43450;BME280;29041;42.266;23.110;2023-07-30T05:37:20;95666.03;;;21.66;69.18
43450;BME280;29041;42.266;23.110;2023-07-30T05:40:09;95657.88;;;21.45;68.84
43450;BME280;29041;42.266;23.110;2023-07-30T05:42:56;95673.28;;;21.98;66.15
43450;BME280;29041;42.266;23.110;2023-07-30T05:45:43;95677.88;;;22.16;64.71
43450;BME280;29041;42.266;23.110;2023-07-30T05:48:30;95682.97;;;22.14;65.01
43450;BME280;29041;42.266;23.110;2023-07-30T05:51:19;95645.34;;;22.36;64.24
43450;BME280;29041;42.266;23.110;2023-07-30T05:54:06;95677.75;;;22.38;63.94
43450;BME280;29041;42.266;23.110;2023-07-30T05:56:53;95672.75;;;22.29;64.07
43450;BME280;29041;42.266;23.110;2023-07-30T05:59:41;95676.78;;;22.06;65.43
43450;BME280;29041;42.266;23.110;2023-07-30T06:02:28;95663.94;;;21.96;65.50
43450;BME280;29041;42.266;23.110;2023-07-30T06:05:15;95672.75;;;22.29;65.43
43450;BME280;29041;42.266;23.110;2023-07-30T06:08:04;95671.31;;;22.70;63.01
43450;BME280;29041;42.266;23.110;2023-07-30T06:10:51;95662.75;;;22.60;62.91
43450;BME280;29041;42.266;23.110;2023-07-30T06:13:38;95675.72;;;22.49;63.80
43450;BME280;29041;42.266;23.110;2023-07-30T06:16:25;95666.31;;;23.03;61.85
43450;BME280;29041;42.266;23.110;2023-07-30T06:19:12;95663.78;;;22.77;62.59
43450;BME280;29041;42.266;23.110;2023-07-30T06:21:59;95656.44;;;23.51;60.91
43450;BME280;29041;42.266;23.110;2023-07-30T06:24:48;95659.06;;;23.92;58.87
43450;BME280;29041;42.266;23.110;2023-07-30T06:27:35;95660.34;;;23.50;58.67
43450;BME280;29041;42.266;23.110;2023-07-30T06:30:22;95655.53;;;23.61;58.92
43450;BME280;29041;42.266;23.110;2023-07-30T06:33:09;95654.69;;;23.68;58.40
43450;BME280;29041;42.266;23.110;2023-07-30T06:35:56;95642.69;;;23.85;58.82
43450;BME280;29041;42.266;23.110;2023-07-30T06:38:43;95647.06;;;24.14;58.25
43450;BME280;29041;42.266;23.110;2023-07-30T06:41:32;95634.53;;;24.64;55.44
43450;BME280;29041;42.266;23.110;2023-07-30T06:44:19;95638.81;;;24.41;56.40
43450;BME280;29041;42.266;23.110;2023-07-30T06:47:06;95618.81;;;24.68;55.08
43450;BME280;29041;42.266;23.110;2023-07-30T06:49:54;95628.28;;;24.87;53.36
43450;BME280;29041;42.266;23.110;2023-07-30T06:52:41;95620.22;;;25.00;53.26
43450;BME280;29041;42.266;23.110;2023-07-30T06:55:28;95610.31;;;24.59;54.02
43450;BME280;29041;42.266;23.110;2023-07-30T06:58:16;95616.06;;;24.92;52.70
43450;BME280;29041;42.266;23.110;2023-07-30T07:01:03;95612.50;;;25.35;50.66
43450;BME280;29041;42.266;23.110;2023-07-30T07:03:51;95608.25;;;25.10;51.74
43450;BME280;29041;42.266;23.110;2023-07-30T07:06:38;95605.56;;;25.07;51.14
43450;BME280;29041;42.266;23.110;2023-07-30T07:09:25;95606.94;;;25.59;51.39
43450;BME280;29041;42.266;23.110;2023-07-30T07:12:12;95605.97;;;25.86;49.56
43450;BME280;29041;42.266;23.110;2023-07-30T07:15:00;95597.31;;;25.87;49.91
43450;BME280;29041;42.266;23.110;2023-07-30T07:17:48;95607.28;;;26.51;49.21
43450;BME280;29041;42.266;23.110;2023-07-30T07:20:35;95594.13;;;26.58;48.61
43450;BME280;29041;42.266;23.110;2023-07-30T07:23:22;95581.28;;;26.68;49.67
43450;BME280;29041;42.266;23.110;2023-07-30T07:26:09;95587.56;;;27.15;47.31
43450;BME280;29041;42.266;23.110;2023-07-30T07:28:56;95589.38;;;26.75;47.79
43450;BME280;29041;42.266;23.110;2023-07-30T07:31:46;95568.28;;;27.15;46.58
43450;BME280;29041;42.266;23.110;2023-07-30T07:34:33;95568.06;;;26.80;46.76
43450;BME280;29041;42.266;23.110;2023-07-30T07:37:20;95576.94;;;27.00;47.11
43450;BME280;29041;42.266;23.110;2023-07-30T07:40:08;95568.72;;;27.13;46.73
43450;BME280;29041;42.266;23.110;2023-07-30T07:42:56;95568.53;;;27.33;46.16
43450;BME280;29041;42.266;23.110;2023-07-30T07:45:44;95545.78;;;27.46;46.24
43450;BME280;29041;42.266;23.110;2023-07-30T07:48:33;95561.69;;;27.93;44.93
43450;BME280;29041;42.266;23.110;2023-07-30T07:51:20;95565.34;;;29.12;41.83
43450;BME280;29041;42.266;23.110;2023-07-30T07:54:07;95550.53;;;31.38;36.32
43450;BME280;29041;42.266;23.110;2023-07-30T07:56:54;95533.16;;;33.85;30.62
43450;BME280;29041;42.266;23.110;2023-07-30T07:59:41;95547.38;;;35.79;28.21
43450;BME280;29041;42.266;23.110;2023-07-30T08:02:30;95542.28;;;36.04;25.97
43450;BME280;29041;42.266;23.110;2023-07-30T08:05:19;95531.72;;;36.74;25.77
43450;BME280;29041;42.266;23.110;2023-07-30T08:08:06;95540.66;;;35.65;26.77
43450;BME280;29041;42.266;23.110;2023-07-30T08:10:53;95525.09;;;36.72;25.93
43450;BME280;29041;42.266;23.110;2023-07-30T08:13:46;95521.50;;;37.94;24.01
43450;BME280;29041;42.266;23.110;2023-07-30T08:16:33;95518.19;;;37.39;24.57
43450;BME280;29041;42.266;23.110;2023-07-30T08:19:20;95520.66;;;36.42;25.83
43450;BME280;29041;42.266;23.110;2023-07-30T08:22:09;95516.06;;;38.30;22.58
43450;BME280;29041;42.266;23.110;2023-07-30T08:24:56;95513.88;;;36.66;24.83
43450;BME280;29041;42.266;23.110;2023-07-30T08:27:43;95508.06;;;38.68;23.24
43450;BME280;29041;42.266;23.110;2023-07-30T08:30:30;95518.84;;;35.96;26.01
43450;BME280;29041;42.266;23.110;2023-07-30T08:33:18;95511.28;;;37.28;24.61
43450;BME280;29041;42.266;23.110;2023-07-30T08:36:05;95502.59;;;34.62;28.33
43450;BME280;29041;42.266;23.110;2023-07-30T08:38:53;95497.41;;;36.79;26.20
43450;BME280;29041;42.266;23.110;2023-07-30T08:41:40;95498.34;;;37.42;24.45
43450;BME280;29041;42.266;23.110;2023-07-30T08:44:28;95496.41;;;38.47;23.98
43450;BME280;29041;42.266;23.110;2023-07-30T08:47:15;95496.31;;;36.48;26.27
43450;BME280;29041;42.266;23.110;2023-07-30T08:50:03;95482.56;;;35.64;26.96
43450;BME280;29041;42.266;23.110;2023-07-30T08:52:50;95469.84;;;37.55;25.48
43450;BME280;29041;42.266;23.110;2023-07-30T08:55:40;95485.97;;;36.77;25.80
43450;BME280;29041;42.266;23.110;2023-07-30T08:58:28;95482.78;;;37.19;25.87
43450;BME280;29041;42.266;23.110;2023-07-30T09:01:16;95485.78;;;38.23;23.97
43450;BME280;29041;42.266;23.110;2023-07-30T09:04:35;95470.63;;;38.54;22.96
43450;BME280;29041;42.266;23.110;2023-07-30T09:07:24;95467.47;;;38.11;23.78
43450;BME280;29041;42.266;23.110;2023-07-30T09:10:11;95464.47;;;37.29;24.20
43450;BME280;29041;42.266;23.110;2023-07-30T09:13:01;95478.34;;;35.80;25.12
43450;BME280;29041;42.266;23.110;2023-07-30T09:15:49;95458.63;;;37.61;23.14
43450;BME280;29041;42.266;23.110;2023-07-30T09:18:40;95468.47;;;36.94;23.48
43450;BME280;29041;42.266;23.110;2023-07-30T09:21:30;95465.88;;;38.27;22.75
43450;BME280;29041;42.266;23.110;2023-07-30T09:24:21;95466.09;;;36.58;23.42
43450;BME280;29041;42.266;23.110;2023-07-30T09:27:08;95464.81;;;36.65;22.50
43450;BME280;29041;42.266;23.110;2023-07-30T09:29:58;95464.09;;;36.70;22.67
43450;BME280;29041;42.266;23.110;2023-07-30T09:32:45;95463.81;;;36.08;24.00
43450;BME280;29041;42.266;23.110;2023-07-30T09:35:33;95453.81;;;39.08;21.15
43450;BME280;29041;42.266;23.110;2023-07-30T09:38:21;95442.84;;;37.86;21.65
43450;BME280;29041;42.266;23.110;2023-07-30T09:41:08;95450.06;;;36.47;22.31
43450;BME280;29041;42.266;23.110;2023-07-30T09:43:58;95445.63;;;36.35;23.87
43450;BME280;29041;42.266;23.110;2023-07-30T09:46:48;95428.03;;;35.68;25.18
43450;BME280;29041;42.266;23.110;2023-07-30T09:49:35;95440.50;;;36.94;24.50
43450;BME280;29041;42.266;23.110;2023-07-30T09:52:23;95430.38;;;36.25;24.90
43450;BME280;29041;42.266;23.110;2023-07-30T09:55:10;95437.19;;;34.37;26.78
43450;BME280;29041;42.266;23.110;2023-07-30T09:57:58;95429.28;;;33.44;27.83
43450;BME280;29041;42.266;23.110;2023-07-30T10:00:45;95432.59;;;32.73;29.27
43450;BME280;29041;42.266;23.110;2023-07-30T10:03:35;95428.34;;;32.87;28.74
43450;BME280;29041;42.266;23.110;2023-07-30T10:06:23;95411.06;;;33.93;28.20
43450;BME280;29041;42.266;23.110;2023-07-30T10:09:15;95412.66;;;34.00;28.47
43450;BME280;29041;42.266;23.110;2023-07-30T10:12:05;95403.69;;;33.75;27.95
43450;BME280;29041;42.266;23.110;2023-07-30T10:14:53;95398.97;;;33.81;26.85
43450;BME280;29041;42.266;23.110;2023-07-30T10:17:40;95390.06;;;33.42;27.47
43450;BME280;29041;42.266;23.110;2023-07-30T10:20:29;95397.50;;;33.00;27.96
43450;BME280;29041;42.266;23.110;2023-07-30T10:23:17;95371.78;;;33.20;26.83
43450;BME280;29041;42.266;23.110;2023-07-30T10:26:09;95368.81;;;33.59;26.24
43450;BME280;29041;42.266;23.110;2023-07-30T10:29:14;95380.31;;;33.67;25.71
43450;BME280;29041;42.266;23.110;2023-07-30T10:32:02;95367.66;;;33.66;26.36
43450;BME280;29041;42.266;23.110;2023-07-30T10:34:49;95368.06;;;33.59;26.63
43450;BME280;29041;42.266;23.110;2023-07-30T10:37:45;95366.84;;;33.45;26.45
43450;BME280;29041;42.266;23.110;2023-07-30T10:40:33;95369.63;;;34.01;26.06
43450;BME280;29041;42.266;23.110;2023-07-30T10:43:20;95361.00;;;34.20;25.98
43450;BME280;29041;42.266;23.110;2023-07-30T10:46:10;95356.84;;;33.74;25.82
43450;BME280;29041;42.266;23.110;2023-07-30T10:48:57;95334.59;;;33.74;25.18
43450;BME280;29041;42.266;23.110;2023-07-30T10:51:44;95352.13;;;34.21;23.52
43450;BME280;29041;42.266;23.110;2023-07-30T10:54:38;95340.34;;;34.32;24.74
43450;BME280;29041;42.266;23.110;2023-07-30T10:57:29;95344.41;;;33.69;25.24
43450;BME280;29041;42.266;23.110;2023-07-30T11:00:17;95341.56;;;33.63;24.96
43450;BME280;29041;42.266;23.110;2023-07-30T11:03:05;95331.03;;;33.52;24.06
43450;BME280;29041;42.266;23.110;2023-07-30T11:05:52;95324.09;;;33.63;23.85
43450;BME280;29041;42.266;23.110;2023-07-30T11:08:41;95328.47;;;32.98;25.37
43450;BME280;29041;42.266;23.110;2023-07-30T11:11:30;95313.78;;;33.48;24.24
43450;BME280;29041;42.266;23.110;2023-07-30T11:14:23;95328.97;;;34.56;24.58
43450;BME280;29041;42.266;23.110;2023-07-30T11:17:17;95306.81;;;34.21;24.21
43450;BME280;29041;42.266;23.110;2023-07-30T11:20:07;95303.53;;;35.01;23.09
43450;BME280;29041;42.266;23.110;2023-07-30T11:22:55;95303.81;;;34.77;23.43
43450;BME280;29041;42.266;23.110;2023-07-30T11:25:45;95305.75;;;34.65;23.11
43450;BME280;29041;42.266;23.110;2023-07-30T11:28:36;95302.91;;;34.59;23.14
43450;BME280;29041;42.266;23.110;2023-07-30T11:31:24;95287.03;;;34.71;23.22
43450;BME280;29041;42.266;23.110;2023-07-30T11:34:13;95293.38;;;34.19;23.58
43450;BME280;29041;42.266;23.110;2023-07-30T11:37:01;95297.97;;;34.22;23.69
43450;BME280;29041;42.266;23.110;2023-07-30T11:39:50;95285.28;;;34.74;23.21
43450;BME280;29041;42.266;23.110;2023-07-30T11:42:38;95280.06;;;34.03;24.20
43450;BME280;29041;42.266;23.110;2023-07-30T11:45:29;95280.44;;;34.69;24.46
43450;BME280;29041;42.266;23.110;2023-07-30T11:48:16;95279.78;;;34.85;23.84
43450;BME280;29041;42.266;23.110;2023-07-30T11:51:04;95277.28;;;34.29;24.65
43450;BME280;29041;42.266;23.110;2023-07-30T11:53:53;95267.63;;;34.51;24.68
43450;BME280;29041;42.266;23.110;2023-07-30T11:56:40;95263.41;;;34.93;24.80
43450;BME280;29041;42.266;23.110;2023-07-30T11:59:27;95259.19;;;33.92;24.98
43450;BME280;29041;42.266;23.110;2023-07-30T12:02:18;95265.41;;;34.34;24.48
43450;BME280;29041;42.266;23.110;2023-07-30T12:05:06;95246.53;;;34.76;23.84
43450;BME280;29041;42.266;23.110;2023-07-30T12:07:53;95249.53;;;34.14;24.29
43450;BME280;29041;42.266;23.110;2023-07-30T12:10:41;95233.22;;;34.59;24.30
43450;BME280;29041;42.266;23.110;2023-07-30T12:13:29;95233.84;;;34.75;23.32
43450;BME280;29041;42.266;23.110;2023-07-30T12:16:16;95225.84;;;34.88;24.07
43450;BME280;29041;42.266;23.110;2023-07-30T12:19:05;95227.38;;;34.57;24.30
43450;BME280;29041;42.266;23.110;2023-07-30T12:21:52;95221.09;;;34.62;24.98
43450;BME280;29041;42.266;23.110;2023-07-30T12:24:40;95219.66;;;34.73;24.55
43450;BME280;29041;42.266;23.110;2023-07-30T12:27:27;95219.75;;;34.26;24.58
43450;BME280;29041;42.266;23.110;2023-07-30T12:30:15;95221.59;;;34.35;23.58
43450;BME280;29041;42.266;23.110;2023-07-30T12:33:02;95214.75;;;34.62;24.53
43450;BME280;29041;42.266;23.110;2023-07-30T12:35:50;95211.44;;;34.95;24.39
43450;BME280;29041;42.266;23.110;2023-07-30T12:38:39;95210.72;;;35.01;23.52
43450;BME280;29041;42.266;23.110;2023-07-30T12:41:26;95204.34;;;34.94;24.16
43450;BME280;29041;42.266;23.110;2023-07-30T12:44:13;95203.38;;;34.66;24.06
43450;BME280;29041;42.266;23.110;2023-07-30T12:47:00;95200.66;;;34.39;24.11
43450;BME280;29041;42.266;23.110;2023-07-30T12:49:47;95194.31;;;34.39;24.59
43450;BME280;29041;42.266;23.110;2023-07-30T12:52:36;95187.25;;;34.81;24.96
43450;BME280;29041;42.266;23.110;2023-07-30T12:55:23;95194.41;;;34.50;24.09
43450;BME280;29041;42.266;23.110;2023-07-30T12:58:10;95181.03;;;34.54;24.16
43450;BME280;29041;42.266;23.110;2023-07-30T13:00:58;95187.28;;;34.49;24.46
43450;BME280;29041;42.266;23.110;2023-07-30T13:03:45;95178.97;;;33.96;24.97
43450;BME280;29041;42.266;23.110;2023-07-30T13:06:32;95184.84;;;33.98;25.11
43450;BME280;29041;42.266;23.110;2023-07-30T13:09:21;95179.47;;;34.21;25.35
43450;BME280;29041;42.266;23.110;2023-07-30T13:12:08;95178.94;;;34.17;24.97
43450;BME280;29041;42.266;23.110;2023-07-30T13:14:55;95170.22;;;33.83;25.37
43450;BME280;29041;42.266;23.110;2023-07-30T13:17:43;95165.09;;;33.76;24.82
43450;BME280;29041;42.266;23.110;2023-07-30T13:20:30;95167.56;;;33.68;24.88
43450;BME280;29041;42.266;23.110;2023-07-30T13:23:17;95163.16;;;34.08;24.53
43450;BME280;29041;42.266;23.110;2023-07-30T13:26:06;95142.41;;;34.09;24.53
43450;BME280;29041;42.266;23.110;2023-07-30T13:28:53;95156.44;;;34.26;24.61
43450;BME280;29041;42.266;23.110;2023-07-30T13:31:40;95145.44;;;34.38;24.41
43450;BME280;29041;42.266;23.110;2023-07-30T13:34:27;95143.25;;;34.21;24.32
43450;BME280;29041;42.266;23.110;2023-07-30T13:37:14;95139.97;;;34.23;24.85
43450;BME280;29041;42.266;23.110;2023-07-30T13:40:02;95143.03;;;34.25;24.66
43450;BME280;29041;42.266;23.110;2023-07-30T13:42:51;95146.13;;;33.74;25.04
43450;BME280;29041;42.266;23.110;2023-07-30T13:45:38;95129.84;;;33.67;25.54
43450;BME280;29041;42.266;23.110;2023-07-30T13:48:25;95139.56;;;33.51;25.98
43450;BME280;29041;42.266;23.110;2023-07-30T13:51:12;95137.75;;;33.27;26.19
43450;BME280;29041;42.266;23.110;2023-07-30T13:54:00;95124.00;;;32.97;26.60
43450;BME280;29041;42.266;23.110;2023-07-30T13:56:47;95134.91;;;33.21;26.41
43450;BME280;29041;42.266;23.110;2023-07-30T13:59:35;95121.94;;;33.60;26.68
43450;BME280;29041;42.266;23.110;2023-07-30T14:02:23;95132.13;;;33.68;26.16
43450;BME280;29041;42.266;23.110;2023-07-30T14:05:10;95131.69;;;33.29;26.33
43450;BME280;29041;42.266;23.110;2023-07-30T14:07:57;95111.63;;;33.40;25.91
43450;BME280;29041;42.266;23.110;2023-07-30T14:10:44;95122.09;;;33.50;26.70
43450;BME280;29041;42.266;23.110;2023-07-30T14:13:31;95116.75;;;33.26;26.62
43450;BME280;29041;42.266;23.110;2023-07-30T14:16:20;95110.72;;;32.86;27.09
43450;BME280;29041;42.266;23.110;2023-07-30T14:19:07;95109.63;;;32.99;27.07
43450;BME280;29041;42.266;23.110;2023-07-30T14:21:54;95108.44;;;33.05;26.82
43450;BME280;29041;42.266;23.110;2023-07-30T14:24:41;95101.06;;;33.02;27.25
43450;BME280;29041;42.266;23.110;2023-07-30T14:27:30;95101.81;;;33.24;26.76
43450;BME280;29041;42.266;23.110;2023-07-30T14:30:17;95091.75;;;33.05;27.09
43450;BME280;29041;42.266;23.110;2023-07-30T14:33:06;95079.25;;;32.95;26.63
43450;BME280;29041;42.266;23.110;2023-07-30T14:35:53;95099.41;;;33.11;27.43
43450;BME280;29041;42.266;23.110;2023-07-30T14:38:41;95090.47;;;33.06;27.54